Estación Meteorológica Peña el Pijo (Robertgarden) [ 07/19/24 12:36:17 CEST ]

Fecha Hora Presion(HPa) Temp (°C) Humedad % Rocio (°C) Viento ( m/s) Direccion Lluvia 1Hora(mm) Lluvia 24H(mm) LLuvia Total(mm)
2015-Mar-09 01:01:18 1013.900 2.9 69 -2.2         304.58
2015-Mar-09 02:03:17 1013.900 2.5 71 -2.2         304.58
2015-Mar-09 03:01:14 1013.800 2.1 72 -2.4         304.58
2015-Mar-09 04:01:21 1013.600 1.8 74 -2.4         304.58
2015-Mar-09 05:01:16 1013.400 1.3 74 -2.9         304.58
2015-Mar-09 06:01:19 1014.000 1.0 75 -3.0         304.58
2015-Mar-09 07:01:18 1014.200 0.4 76 -3.4         304.58
2015-Mar-09 08:01:18 1014.600 0.6 76 -3.2         304.58
2015-Mar-09 09:01:19 1014.800 5.9 76 2.0         304.58
2015-Mar-09 10:01:19 1014.300 13.8 48 3.0         304.58
2015-Mar-09 11:01:17 1014.200 18.3 33 1.7         304.58
2015-Mar-09 12:01:22 1013.900 19.8 24 -1.6         304.58
2015-Mar-09 13:01:17 1013.700 20.2 25 -0.7         304.58
2015-Mar-09 14:01:16 1013.300 20.1 20 -3.5         304.58
2015-Mar-09 15:01:17 1012.900 21.1 18 -4.5         304.58
2015-Mar-09 16:01:21 1012.800 20.8 24 -0.7         304.58
2015-Mar-09 17:01:13 1012.900 19.5 26 -0.7 2.9 SE     304.58
2015-Mar-09 18:01:17 1013.300 17.6 30 -0.2         304.58
2015-Mar-09 19:01:16 1013.600 15.4 35 -0.1         304.58
2015-Mar-09 20:01:18 1014.300 11.9 43 -0.4         304.58
2015-Mar-09 21:01:17 1014.700 9.0 49 -1.2         304.58
2015-Mar-09 22:01:22 1015.500 6.9 56 -1.3         304.58
2015-Mar-09 23:01:17 1015.700 5.9 60 -1.3         304.58

Temperatura Máxima:21°    Temperatura Mínima:
Presión Máxima:1015.700 Hpa    Presión Mínima:1012.800 Hpa


Volver